Repentigny, Canada
Current Conditions -  °F | °C
As of 8:00 PM on Wednesday 26 Nov 2014 (Local Time) from CYHU Reporting Station
Overcast Overcast  
Wind Chill: -6°   Ceiling: 7500
Heat Index: -1°   Visibility: 9mi
Dew Point: -5°   Wind: 12mph
Humidity: 75%   Direction: 30°NNE
Pressure: 30.09"   Gusts: 17mph
Location:  45.73°N, 73.45°W
Report Text: CYHU 270100Z AUTO 03010G15KT 9SM OVC075 M01/M05 A3009 RMK PRESFR SLP190
Loading
Personal Weather Stations






























Interactive Weather Map New forecast layout! Learn more

10-Day Weather Forecast

Advertisements
Track Severe Weather on mobile